Time;durP1;ratioP1;P1;durP2;ratioP2;P2;SDS_P1;SDS_P2;PMS_P1;PMS_P2;Temp;Humidity;BMP_temperature;BMP_pressure;BME280_temperature;BME280_humidity;BME280_pressure;Samples;Min_cycle;Max_cycle;Signal;HPM_P1;HPM_P2
2021/05/12 00:00:22;;;;;;;6.30;1.40;;;;;;;18.76;47.74;99161.37;125650;1099;23903;-59
2021/05/12 00:03:08;;;;;;;;;;;;;;;18.74;48.20;99166.83;125597;1104;24699;-59
2021/05/12 00:05:37;;;;;;;7.40;1.40;;;;;;;18.69;48.21;99160.03;125552;1105;21468;-59
2021/05/12 00:08:06;;;;;;;4.50;1.00;;;;;;;18.67;47.89;99165.48;125663;1099;27664;-59
2021/05/12 00:10:36;;;;;;;4.50;1.35;;;;;;;18.65;47.98;99165.30;125607;1105;24171;-59
2021/05/12 00:13:05;;;;;;;3.80;1.17;;;;;;;18.63;47.97;99156.62;125719;1104;22790;-59
2021/05/12 00:15:34;;;;;;;6.20;1.35;;;;;;;18.62;48.35;99157.19;125706;1100;23151;-59
2021/05/12 00:18:11;;;;;;;9.90;1.30;;;;;;;18.58;48.63;99157.53;125633;1104;22765;-59
2021/05/12 00:20:40;;;;;;;5.90;1.30;;;;;;;18.58;48.09;99162.45;125589;1105;22777;-59
2021/05/12 00:23:12;;;;;;;8.47;1.47;;;;;;;18.56;48.37;99157.34;125699;1099;22777;-59
2021/05/12 00:25:40;;;;;;;12.10;1.40;;;;;;;18.54;48.55;99163.56;125617;1104;22750;-59
2021/05/12 00:28:09;;;;;;;4.95;1.30;;;;;;;18.52;48.33;99163.36;125601;1104;24400;-59
2021/05/12 00:30:38;;;;;;;4.35;1.10;;;;;;;18.49;48.89;99164.50;125907;1104;22791;-59
2021/05/12 00:33:06;;;;;;;5.85;1.10;;;;;;;18.45;48.95;99166.94;125735;1100;22740;-59
2021/05/12 00:35:35;;;;;;;6.50;1.20;;;;;;;18.43;48.75;99166.73;125685;1099;27122;-60
2021/05/12 00:38:03;;;;;;;6.35;1.20;;;;;;;18.42;48.64;99168.01;125565;1099;26636;-59
2021/05/12 00:40:32;;;;;;;4.50;1.20;;;;;;;18.40;48.69;99167.81;125549;1104;22754;-59
2021/05/12 00:43:00;;;;;;;3.05;1.00;;;;;;;18.37;48.97;99174.56;125557;1104;22782;-59
2021/05/12 00:45:29;;;;;;;7.70;1.20;;;;;;;18.32;49.00;99164.20;125528;1104;22765;-59
2021/05/12 00:47:57;;;;;;;5.95;1.20;;;;;;;18.30;48.89;99169.66;125536;1105;22775;-59
2021/05/12 00:50:29;;;;;;;4.55;1.25;;;;;;;18.27;49.10;99165.11;125498;1104;22988;-59
2021/05/12 00:52:57;;;;;;;4.70;1.30;;;;;;;18.24;49.46;99165.48;125568;1099;24421;-58
2021/05/12 00:55:27;;;;;;;6.67;1.20;;;;;;;18.20;49.05;99173.55;125485;1100;26665;-59
2021/05/12 00:57:56;;;;;;;6.78;1.55;;;;;;;18.17;49.45;99164.13;125609;1099;26696;-59
2021/05/12 01:00:28;;;;;;;10.75;1.85;;;;;;;18.12;49.34;99175.59;125672;1105;22913;-59
2021/05/12 01:02:57;;;;;;;4.15;1.30;;;;;;;18.08;49.58;99167.48;125627;1105;22764;-59
2021/05/12 01:05:29;;;;;;;5.90;1.30;;;;;;;18.03;49.59;99178.92;125536;1104;22768;-60
2021/05/12 01:07:59;;;;;;;7.40;1.37;;;;;;;17.98;50.17;99174.20;125661;1104;22791;-58
2021/05/12 01:10:27;;;;;;;5.33;1.30;;;;;;;17.94;50.09;99176.63;125672;1099;22902;-59
2021/05/12 01:12:56;;;;;;;5.55;1.05;;;;;;;17.92;50.00;99165.13;125587;1100;27946;-59
2021/05/12 01:15:24;;;;;;;3.85;1.30;;;;;;;17.88;50.15;99165.46;125516;1104;22774;-59
2021/05/12 01:17:53;;;;;;;6.25;1.35;;;;;;;17.87;50.45;99166.02;125581;1100;22848;-59
2021/05/12 01:20:22;;;;;;;7.60;1.37;;;;;;;17.83;50.54;99166.39;125483;1099;28586;-58
2021/05/12 01:22:50;;;;;;;5.30;1.30;;;;;;;17.81;50.60;99160.54;125603;1100;22742;-58
2021/05/12 01:25:19;;;;;;;4.95;1.35;;;;;;;17.81;50.52;99179.54;125537;1104;22919;-59
2021/05/12 01:27:49;;;;;;;8.88;1.83;;;;;;;17.79;50.22;99168.81;125803;1098;26649;-59
2021/05/12 01:30:22;;;;;;;6.50;1.20;;;;;;;17.77;50.75;99168.61;125500;1099;27269;-58
2021/05/12 01:32:51;;;;;;;7.65;1.60;;;;;;;17.76;50.67;99175.55;125447;1099;22729;-59
2021/05/12 01:35:20;;;;;;;8.20;1.70;;;;;;;17.74;50.72;99172.52;125699;1104;22757;-59
2021/05/12 01:37:48;;;;;;;5.20;1.60;;;;;;;17.70;51.06;99169.30;125571;1104;24432;-59
2021/05/12 01:40:18;;;;;;;6.35;1.60;;;;;;;17.66;50.73;99168.89;125488;1105;22805;-59
2021/05/12 01:42:46;;;;;;;8.20;1.50;;;;;;;17.62;50.98;99162.84;125623;1104;24150;-59
2021/05/12 01:45:17;;;;;;;10.05;1.85;;;;;;;17.58;50.80;99163.20;125510;1104;22809;-59
2021/05/12 01:47:46;;;;;;;5.10;1.75;;;;;;;17.55;51.09;99158.66;125579;1104;23480;-59
2021/05/12 01:50:15;;;;;;;6.85;1.40;;;;;;;17.53;51.40;99157.69;125665;1104;22768;-58
2021/05/12 01:52:46;;;;;;;4.83;1.47;;;;;;;17.50;51.60;99155.99;125663;1100;22833;-60
2021/05/12 01:55:16;;;;;;;7.47;1.53;;;;;;;17.48;51.44;99169.87;125501;1099;24445;-59
2021/05/12 01:57:45;;;;;;;;;;;;;;;17.47;51.54;99165.52;125816;1099;25996;-61
2021/05/12 02:00:28;;;;;;;5.10;1.35;;;;;;;17.45;51.54;99166.08;125667;1105;21613;-59
2021/05/12 02:02:57;;;;;;;7.40;1.48;;;;;;;17.42;51.51;99172.08;125638;1099;27125;-59
2021/05/12 02:05:28;;;;;;;9.05;1.70;;;;;;;17.39;51.47;99161.88;125821;1104;22770;-59
2021/05/12 02:07:59;;;;;;;9.85;1.60;;;;;;;17.36;51.73;99169.38;125762;1100;22757;-60
2021/05/12 02:10:28;;;;;;;7.65;1.70;;;;;;;17.33;51.78;99173.32;125559;1104;22826;-60
2021/05/12 02:12:57;;;;;;;7.30;1.90;;;;;;;17.29;51.67;99175.73;126057;1087;22803;-59
2021/05/12 02:15:27;;;;;;;6.87;1.63;;;;;;;17.26;52.20;99176.81;125607;1104;22974;-59
2021/05/12 02:17:56;;;;;;;9.33;1.78;;;;;;;17.21;52.03;99174.14;125722;1104;22856;-59
2021/05/12 02:20:28;;;;;;;9.00;1.60;;;;;;;17.15;52.40;99181.98;125587;1098;25945;-58
2021/05/12 02:22:58;;;;;;;10.95;2.40;;;;;;;17.09;52.20;99175.73;125529;1097;25945;-59
2021/05/12 02:25:27;;;;;;;6.50;1.70;;;;;;;17.03;52.77;99187.13;125618;1104;22773;-59
2021/05/12 02:27:57;;;;;;;8.97;2.10;;;;;;;16.97;52.64;99180.86;125596;1104;22740;-59
2021/05/12 02:30:25;;;;;;;8.53;2.35;;;;;;;16.93;52.52;99169.94;125658;1097;25861;-58
2021/05/12 02:32:56;;;;;;;11.45;2.35;;;;;;;16.90;53.05;99173.84;125454;1097;25906;-58
2021/05/12 02:35:25;;;;;;;7.27;2.00;;;;;;;16.84;52.94;99164.02;125727;1097;22778;-58
2021/05/12 02:37:54;;;;;;;12.23;2.25;;;;;;;16.79;53.40;99160.02;125882;1097;25890;-59
2021/05/12 02:40:23;;;;;;;9.30;2.30;;;;;;;16.76;53.42;99163.92;125968;1097;25867;-59
2021/05/12 02:42:53;;;;;;;8.65;2.23;;;;;;;16.72;53.22;99159.92;125623;1104;22833;-59
2021/05/12 02:45:22;;;;;;;8.48;1.80;;;;;;;16.68;53.55;99168.72;125872;1104;22870;-59
2021/05/12 02:47:58;;;;;;;8.13;2.23;;;;;;;16.66;53.37;99173.38;125527;1096;28115;-58
2021/05/12 02:50:28;;;;;;;10.80;2.00;;;;;;;16.62;53.79;99173.73;125475;1104;22758;-59
2021/05/12 02:52:58;;;;;;;8.90;2.20;;;;;;;16.60;53.84;99178.39;125526;1104;22834;-59
2021/05/12 02:55:27;;;;;;;7.97;2.40;;;;;;;16.57;54.24;99177.44;125597;1097;22806;-59
2021/05/12 02:57:57;;;;;;;9.10;2.03;;;;;;;16.54;54.22;99189.80;125626;1097;27724;-58
2021/05/12 03:00:29;;;;;;;10.43;3.05;;;;;;;16.49;53.79;99182.20;125678;1104;26721;-59
2021/05/12 03:02:57;;;;;;;8.25;2.55;;;;;;;16.45;54.32;99187.39;125696;1104;22880;-57
2021/05/12 03:05:29;;;;;;;11.45;2.40;;;;;;;16.39;53.93;99194.47;125600;1101;24567;-59
2021/05/12 03:07:58;;;;;;;10.40;2.25;;;;;;;16.34;54.05;99186.88;125683;1096;25983;-61
2021/05/12 03:10:28;;;;;;;12.90;2.90;;;;;;;16.27;54.27;99188.30;125649;1097;22835;-59
2021/05/12 03:12:56;;;;;;;8.50;2.30;;;;;;;16.22;54.82;99182.78;125721;1097;22761;-61
2021/05/12 03:15:26;;;;;;;12.47;2.57;;;;;;;16.14;54.98;99189.06;125490;1104;27345;-58
2021/05/12 03:17:56;;;;;;;11.65;2.65;;;;;;;16.11;54.68;99192.21;125537;1104;22761;-61
2021/05/12 03:20:26;;;;;;;9.90;2.53;;;;;;;16.09;55.42;99192.00;125679;1104;22948;-58
2021/05/12 03:22:56;;;;;;;8.50;2.65;;;;;;;16.05;55.19;99192.33;125645;1104;22904;-58
2021/05/12 03:25:26;;;;;;;12.25;2.85;;;;;;;16.00;55.12;99200.87;125679;1104;23260;-58
2021/05/12 03:27:56;;;;;;;11.30;3.10;;;;;;;15.96;55.75;99197.63;125692;1104;22806;-58
2021/05/12 03:30:26;;;;;;;8.80;2.43;;;;;;;15.88;55.92;99234.11;125567;1104;22806;-58
2021/05/12 03:32:57;;;;;;;10.70;2.37;;;;;;;15.72;56.49;99221.11;125663;1101;23390;-60
2021/05/12 03:35:25;;;;;;;;;;;;;;;15.63;57.20;99252.46;125476;1104;23190;-58
2021/05/12 03:37:53;;;;;;;6.67;2.03;;;;;;;15.49;57.18;99247.34;125508;1101;25512;-58
2021/05/12 03:40:23;;;;;;;9.43;2.03;;;;;;;15.38;57.06;99234.95;125466;1104;22770;-59
2021/05/12 03:42:51;;;;;;;11.20;2.47;;;;;;;15.39;57.57;99219.58;125868;1101;22771;-59
2021/05/12 03:45:20;;;;;;;8.60;2.20;;;;;;;15.33;57.56;99221.73;125461;1096;25839;-59
2021/05/12 03:47:49;;;;;;;9.75;2.30;;;;;;;15.32;58.22;99233.52;125515;1097;27129;-59
2021/05/12 03:50:19;;;;;;;8.80;2.20;;;;;;;15.31;57.98;99237.64;125506;1104;22774;-58
2021/05/12 03:52:48;;;;;;;10.48;2.38;;;;;;;15.33;57.97;99241.41;125487;1097;27454;-58
2021/05/12 03:55:17;;;;;;;10.05;2.00;;;;;;;15.36;58.14;99243.16;125501;1096;26293;-59
2021/05/12 03:57:46;;;;;;;6.85;2.20;;;;;;;15.38;58.13;99246.20;125734;1104;22758;-60
2021/05/12 04:00:19;;;;;;;8.97;2.27;;;;;;;15.41;58.31;99242.30;125816;1104;22735;-59
2021/05/12 04:02:48;;;;;;;6.97;1.80;;;;;;;15.41;58.39;99250.73;125995;1104;24311;-59
2021/05/12 04:05:17;;;;;;;10.15;2.15;;;;;;;15.41;58.54;99245.11;126017;1096;25710;-60
2021/05/12 04:07:46;;;;;;;9.30;2.50;;;;;;;15.43;58.93;99246.67;126046;1105;22740;-59
2021/05/12 04:10:14;;;;;;;10.10;2.20;;;;;;;15.46;59.36;99242.80;125978;1104;24393;-61
2021/05/12 04:12:43;;;;;;;7.00;1.85;;;;;;;15.50;58.74;99246.79;125977;1097;27294;-60
2021/05/12 04:15:13;;;;;;;8.57;2.77;;;;;;;15.55;59.31;99250.81;126030;1097;22787;-61
2021/05/12 04:17:42;;;;;;;11.40;2.40;;;;;;;15.62;59.24;99253.74;126489;1097;22796;-61
2021/05/12 04:20:13;;;;;;;14.00;3.13;;;;;;;15.69;60.01;99243.91;126244;1102;23058;-61
2021/05/12 04:22:43;;;;;;;9.87;2.97;;;;;;;15.74;60.39;99246.65;126332;1104;22745;-61
2021/05/12 04:25:16;;;;;;;9.55;2.53;;;;;;;15.80;60.44;99238.09;126505;1097;22744;-61
2021/05/12 04:27:45;;;;;;;9.45;2.70;;;;;;;15.84;60.51;99242.12;126731;1104;22867;-60
2021/05/12 04:30:17;;;;;;;14.45;3.25;;;;;;;15.89;61.33;99246.87;126225;1104;22741;-59
2021/05/12 04:32:47;;;;;;;12.40;3.55;;;;;;;15.98;62.46;99248.50;126414;1104;22830;-60
2021/05/12 04:35:18;;;;;;;12.63;4.50;;;;;;;16.04;63.76;99249.16;125838;1104;22917;-59
2021/05/12 04:37:49;;;;;;;13.33;5.33;;;;;;;16.13;64.11;99257.95;126005;1104;22783;-60
2021/05/12 04:40:18;;;;;;;13.50;3.87;;;;;;;16.20;64.56;99253.73;126061;1103;22730;-60
2021/05/12 04:42:48;;;;;;;12.60;5.10;;;;;;;16.32;65.40;99254.27;126044;1104;24464;-57
2021/05/12 04:45:20;;;;;;;14.80;5.05;;;;;;;16.42;65.60;99255.33;125923;1104;22734;-59
2021/05/12 04:47:56;;;;;;;11.65;4.80;;;;;;;16.49;66.78;99257.50;125738;1097;25758;-57
2021/05/12 04:50:27;;;;;;;12.60;5.35;;;;;;;16.56;66.14;99260.44;125940;1097;27244;-60
2021/05/12 04:52:56;;;;;;;13.70;6.00;;;;;;;16.64;66.74;99263.34;126002;1097;22741;-59
2021/05/12 04:55:25;;;;;;;12.25;5.15;;;;;;;16.71;66.73;99269.09;125843;1104;22809;-58
2021/05/12 04:57:54;;;;;;;14.00;6.45;;;;;;;16.77;66.73;99258.46;125832;1104;22750;-57
2021/05/12 05:00:24;;;;;;;15.83;6.53;;;;;;;16.85;66.46;99259.30;125861;1104;22771;-58
2021/05/12 05:02:54;;;;;;;16.35;6.45;;;;;;;16.94;66.93;99269.38;126102;1096;25736;-61
2021/05/12 05:05:24;;;;;;;14.10;5.98;;;;;;;17.03;67.27;99271.72;129798;1104;22660;-61
2021/05/12 05:07:53;;;;;;;15.60;5.70;;;;;;;17.10;66.65;99276.69;129942;1101;22529;-60
2021/05/12 05:10:22;;;;;;;13.10;5.90;;;;;;;17.19;67.28;99279.06;129797;1104;22528;-61
2021/05/12 05:12:50;;;;;;;12.95;6.45;;;;;;;17.28;67.43;99270.11;129768;1104;22525;-60
2021/05/12 05:15:19;;;;;;;14.20;6.50;;;;;;;17.34;67.36;99270.73;127281;1104;22919;-61
2021/05/12 05:17:50;;;;;;;18.10;6.70;;;;;;;17.41;67.54;99274.94;126026;1104;22774;-59
2021/05/12 05:20:22;;;;;;;15.38;6.98;;;;;;;17.45;67.38;99275.36;126152;1097;26297;-58
2021/05/12 05:22:51;;;;;;;14.90;6.30;;;;;;;17.49;67.86;99276.56;126221;1104;22773;-59
2021/05/12 05:25:20;;;;;;;11.23;6.00;;;;;;;17.52;67.70;99286.00;126073;1104;22890;-59
2021/05/12 05:27:49;;;;;;;13.47;6.80;;;;;;;17.54;67.55;99280.56;125719;1097;23723;-58
2021/05/12 05:30:18;;;;;;;17.05;6.80;;;;;;;17.58;67.95;99290.20;126032;1097;22766;-59
2021/05/12 05:32:50;;;;;;;15.53;6.55;;;;;;;17.61;67.91;99291.14;126537;1104;22740;-59
2021/05/12 05:35:19;;;;;;;16.05;7.10;;;;;;;17.68;68.10;99279.18;126145;1097;27139;-58
2021/05/12 05:37:48;;;;;;;14.30;6.65;;;;;;;17.73;67.90;99279.03;126035;1104;22780;-57
2021/05/12 05:40:17;;;;;;;13.65;6.05;;;;;;;17.79;67.80;99279.64;126086;1104;23108;-57
2021/05/12 05:42:46;;;;;;;15.80;6.50;;;;;;;17.83;68.03;99282.14;126166;1102;22759;-58
2021/05/12 05:45:15;;;;;;;11.70;6.20;;;;;;;17.89;67.71;99277.11;126088;1104;22772;-57
2021/05/12 05:47:44;;;;;;;15.20;6.35;;;;;;;17.92;67.54;99284.45;126086;1104;22893;-60
2021/05/12 05:50:14;;;;;;;14.93;6.83;;;;;;;17.99;67.90;99274.53;126077;1104;22734;-60
2021/05/12 05:52:42;;;;;;;;;;;;;;;17.99;67.68;99283.77;126163;1104;22757;-57
2021/05/12 05:55:13;;;;;;;14.40;6.20;;;;;;;17.99;67.55;99274.53;126335;1097;21596;-59
2021/05/12 05:57:42;;;;;;;17.10;5.75;;;;;;;18.05;68.20;99280.79;126579;1104;22774;-61
2021/05/12 06:00:13;;;;;;;11.60;5.35;;;;;;;18.08;68.34;99276.88;125874;1104;22760;-60
2021/05/12 06:02:42;;;;;;;11.00;5.30;;;;;;;18.06;67.96;99279.49;126157;1104;22832;-59
2021/05/12 06:05:13;;;;;;;11.10;5.00;;;;;;;18.06;68.41;99277.44;126250;1104;22787;-58
2021/05/12 06:07:43;;;;;;;10.77;4.67;;;;;;;18.04;68.35;99287.77;125711;1097;27654;-58
2021/05/12 06:10:13;;;;;;;11.50;5.80;;;;;;;18.01;68.31;99283.97;125526;1101;22774;-59
2021/05/12 06:12:59;;;;;;;12.67;5.50;;;;;;;18.03;68.99;99284.17;125697;1104;22831;-58
2021/05/12 06:15:32;;;;;;;13.23;5.40;;;;;;;18.05;68.57;99284.38;125711;1104;23031;-57
2021/05/12 06:18:03;;;;;;;12.77;6.50;;;;;;;18.08;68.69;99293.81;125618;1101;22832;-58
2021/05/12 06:20:38;;;;;;;13.13;5.73;;;;;;;18.14;69.10;99295.19;125533;1097;26232;-57
2021/05/12 06:23:08;;;;;;;11.65;5.45;;;;;;;18.21;68.72;99296.53;125743;1097;26603;-57
2021/05/12 06:25:41;;;;;;;10.90;5.05;;;;;;;18.23;68.99;99293.94;125676;1097;22803;-60
2021/05/12 06:28:19;;;;;;;14.50;5.87;;;;;;;18.25;68.49;99297.70;126100;1104;22754;-58
2021/05/12 06:30:51;;;;;;;14.95;6.45;;;;;;;18.26;69.37;99293.58;126252;1104;22760;-57
2021/05/12 06:33:29;;;;;;;14.80;5.95;;;;;;;18.28;68.77;99296.60;126118;1104;24140;-60
2021/05/12 06:36:08;;;;;;;11.20;5.27;;;;;;;18.34;68.85;99293.61;126167;1102;22762;-58
2021/05/12 06:38:43;;;;;;;14.60;5.55;;;;;;;18.38;68.62;99279.88;126365;1104;22747;-58
2021/05/12 06:41:17;;;;;;;13.80;5.20;;;;;;;18.42;68.72;99274.63;126220;1101;22880;-59
2021/05/12 06:43:49;;;;;;;10.60;5.30;;;;;;;18.40;68.70;99285.73;126218;1096;26277;-61
2021/05/12 06:46:18;;;;;;;12.55;5.03;;;;;;;18.40;68.94;99288.56;126231;1097;26213;-60
2021/05/12 06:48:48;;;;;;;12.13;5.63;;;;;;;18.44;69.01;99284.10;126542;1104;22865;-60
2021/05/12 06:51:21;;;;;;;15.20;5.85;;;;;;;18.43;69.26;99284.63;126346;1101;25482;-59
2021/05/12 06:53:50;;;;;;;11.63;4.67;;;;;;;18.45;69.18;99288.45;126453;1102;22939;-61
2021/05/12 06:56:19;;;;;;;14.00;5.50;;;;;;;18.53;68.91;99286.42;126346;1097;28505;-60
2021/05/12 06:58:48;;;;;;;12.70;5.80;;;;;;;18.53;68.85;99282.84;126331;1097;26264;-60
2021/05/12 07:01:18;;;;;;;10.98;5.40;;;;;;;18.56;69.11;99282.47;126357;1104;22782;-59
2021/05/12 07:03:47;;;;;;;11.65;5.00;;;;;;;18.66;69.19;99279.90;126345;1096;26206;-59
2021/05/12 07:06:17;;;;;;;12.17;4.70;;;;;;;18.79;69.01;99281.84;126517;1104;22763;-59
2021/05/12 07:08:50;;;;;;;18.03;6.03;;;;;;;18.81;68.75;99279.95;126087;1104;22743;-59
2021/05/12 07:11:20;;;;;;;9.70;4.70;;;;;;;18.81;68.61;99282.04;126119;1102;22761;-60
2021/05/12 07:13:52;;;;;;;9.85;4.40;;;;;;;18.87;68.62;99286.19;126461;1097;25921;-59
2021/05/12 07:16:23;;;;;;;12.60;5.40;;;;;;;18.92;68.74;99282.45;126170;1104;24469;-61
2021/05/12 07:18:52;;;;;;;11.00;5.10;;;;;;;18.98;68.51;99285.87;126802;1104;23784;-61
2021/05/12 07:21:22;;;;;;;9.25;4.30;;;;;;;19.03;68.65;99282.13;127159;1096;22732;-61
2021/05/12 07:23:51;;;;;;;11.55;4.50;;;;;;;19.12;68.89;99284.41;126201;1096;25225;-62
2021/05/12 07:26:23;;;;;;;10.65;4.78;;;;;;;19.21;68.13;99302.91;126024;1097;25950;-59
2021/05/12 07:28:55;;;;;;;12.35;4.90;;;;;;;19.21;67.95;99292.36;125988;1097;26203;-60
2021/05/12 07:31:27;;;;;;;14.65;4.80;;;;;;;19.24;68.58;99285.56;126876;1104;22900;-61
2021/05/12 07:33:57;;;;;;;10.60;3.65;;;;;;;19.34;68.68;99275.27;126342;1104;23492;-61
2021/05/12 07:36:26;;;;;;;14.95;5.30;;;;;;;19.40;68.05;99283.56;126178;1104;22741;-60
2021/05/12 07:38:55;;;;;;;12.55;5.30;;;;;;;19.50;67.70;99278.86;126991;1097;26703;-61
2021/05/12 07:41:34;;;;;;;9.20;3.30;;;;;;;19.60;68.33;99282.65;125982;1097;25701;-61
2021/05/12 07:44:03;;;;;;;12.35;4.60;;;;;;;19.70;68.30;99291.36;126021;1104;22773;-59
2021/05/12 07:46:33;;;;;;;11.18;4.75;;;;;;;19.77;68.05;99290.59;125992;1104;22747;-60
2021/05/12 07:49:02;;;;;;;13.13;5.30;;;;;;;19.79;67.53;99288.71;126115;1096;27473;-60
2021/05/12 07:51:31;;;;;;;13.45;5.70;;;;;;;19.88;67.45;99293.06;126110;1104;22744;-59
2021/05/12 07:54:01;;;;;;;10.85;5.28;;;;;;;19.95;66.94;99293.05;126604;1097;22747;-60
2021/05/12 07:56:30;;;;;;;14.43;6.10;;;;;;;19.98;66.84;99289.09;126358;1104;22757;-59
2021/05/12 07:59:00;;;;;;;13.13;5.47;;;;;;;20.03;66.99;99298.70;126175;1101;23267;-60
2021/05/12 08:01:31;;;;;;;12.38;5.68;;;;;;;20.09;66.48;99302.13;126905;1097;22735;-60
2021/05/12 08:04:00;;;;;;;12.63;5.73;;;;;;;20.05;66.62;99296.82;126227;1097;24263;-59
2021/05/12 08:06:29;;;;;;;9.90;4.80;;;;;;;20.05;66.49;99296.82;125934;1104;22809;-60
2021/05/12 08:08:58;;;;;;;12.60;4.80;;;;;;;20.10;66.63;99301.55;126103;1104;24416;-60
2021/05/12 08:11:28;;;;;;;12.03;5.97;;;;;;;20.20;66.24;99304.59;126426;1097;22754;-58
2021/05/12 08:13:58;;;;;;;11.83;5.97;;;;;;;20.18;66.23;99304.38;127685;1097;27244;-59
2021/05/12 08:16:29;;;;;;;16.63;6.30;;;;;;;20.10;65.95;99304.39;126173;1104;22788;-58
2021/05/12 08:18:59;;;;;;;14.90;5.10;;;;;;;20.15;66.65;99302.69;126051;1104;22740;-64
2021/05/12 08:21:27;;;;;;;15.70;5.60;;;;;;;20.23;66.41;99300.63;126570;1104;22725;-60
2021/05/12 08:23:59;;;;;;;13.10;6.17;;;;;;;20.31;66.17;99304.20;126039;1096;22747;-59
2021/05/12 08:26:28;;;;;;;13.60;5.23;;;;;;;20.42;65.73;99305.89;126296;1104;22878;-60
2021/05/12 08:28:58;;;;;;;11.08;4.93;;;;;;;20.42;66.25;99295.28;126192;1104;24754;-61
2021/05/12 08:31:28;;;;;;;11.20;5.40;;;;;;;20.49;65.38;99302.27;126222;1104;22744;-61
2021/05/12 08:34:00;;;;;;;10.80;5.58;;;;;;;20.52;65.50;99299.07;126292;1097;22807;-60
2021/05/12 08:36:29;;;;;;;9.83;4.37;;;;;;;20.54;65.74;99295.66;126101;1104;22919;-59
2021/05/12 08:38:58;;;;;;;11.73;5.20;;;;;;;20.60;64.71;99313.98;126133;1104;22753;-59
2021/05/12 08:41:32;;;;;;;9.68;4.68;;;;;;;20.65;65.65;99306.60;126231;1104;22838;-62
2021/05/12 08:44:03;;;;;;;14.20;5.57;;;;;;;20.72;64.97;99305.81;127011;1104;23096;-62
2021/05/12 08:46:34;;;;;;;14.23;5.30;;;;;;;20.66;64.90;99305.27;126140;1101;22774;-60
2021/05/12 08:49:04;;;;;;;11.77;5.43;;;;;;;20.60;65.11;99302.64;126087;1101;22877;-60
2021/05/12 08:51:34;;;;;;;15.07;5.93;;;;;;;20.68;64.73;99291.27;128042;1104;22858;-58
2021/05/12 08:54:03;;;;;;;10.93;5.43;;;;;;;20.77;64.70;99302.02;126152;1097;22879;-59
2021/05/12 08:56:32;;;;;;;12.63;5.75;;;;;;;20.83;64.67;99294.81;126474;1104;22748;-60
2021/05/12 08:59:02;;;;;;;10.80;4.97;;;;;;;20.85;64.79;99292.16;126235;1097;22774;-59
2021/05/12 09:01:33;;;;;;;11.90;5.28;;;;;;;20.85;63.89;99285.73;126088;1101;22761;-59
2021/05/12 09:04:04;;;;;;;8.80;3.93;;;;;;;20.89;64.13;99291.77;126116;1104;22793;-61
2021/05/12 09:06:34;;;;;;;10.73;4.63;;;;;;;21.00;65.14;99290.59;126077;1101;22759;-60
2021/05/12 09:09:07;;;;;;;15.60;6.15;;;;;;;21.05;64.30;99283.95;126278;1097;22713;-61
2021/05/12 09:11:38;;;;;;;11.43;5.50;;;;;;;21.10;63.84;99286.59;126307;1104;22906;-59
2021/05/12 09:14:28;;;;;;;12.40;5.15;;;;;;;21.12;63.64;99283.94;126145;1104;22735;-61
2021/05/12 09:16:57;;;;;;;14.27;4.90;;;;;;;21.13;63.59;99287.51;126191;1101;22827;-61
2021/05/12 09:19:29;;;;;;;12.37;5.23;;;;;;;21.19;63.96;99283.13;126182;1097;23733;-60
2021/05/12 09:22:00;;;;;;;12.95;5.88;;;;;;;21.28;63.82;99285.36;126114;1104;23517;-58
2021/05/12 09:24:32;;;;;;;10.25;5.20;;;;;;;21.38;64.00;99279.80;126231;1097;22817;-60
2021/05/12 09:27:04;;;;;;;13.00;5.00;;;;;;;21.36;63.30;99277.55;126162;1104;24566;-59
2021/05/12 09:29:38;;;;;;;12.23;5.70;;;;;;;21.38;63.53;99288.32;126229;1097;24543;-61
2021/05/12 09:32:10;;;;;;;8.78;5.05;;;;;;;21.45;63.33;99276.94;125935;1096;27467;-60
2021/05/12 09:34:56;;;;;;;10.60;4.73;;;;;;;21.52;63.35;99272.52;125973;1104;24383;-60
2021/05/12 09:37:28;;;;;;;11.70;5.48;;;;;;;21.54;63.16;99281.23;126234;1097;27594;-58
2021/05/12 09:40:20;;;;;;;11.43;5.45;;;;;;;21.53;62.47;99280.48;125746;1097;22722;-59
2021/05/12 09:43:00;;;;;;;10.55;5.80;;;;;;;21.59;62.72;99277.40;126355;1097;22804;-59
2021/05/12 09:45:37;;;;;;;11.58;5.10;;;;;;;21.62;62.74;99273.41;126329;1104;22676;-60
2021/05/12 09:48:07;;;;;;;11.53;5.95;;;;;;;21.60;62.70;99273.24;126176;1104;22758;-60
2021/05/12 09:50:38;;;;;;;10.23;4.90;;;;;;;21.66;63.36;99268.08;126200;1104;23192;-61
2021/05/12 09:53:11;;;;;;;14.13;5.38;;;;;;;21.78;62.82;99265.52;126210;1101;22744;-61
2021/05/12 09:55:44;;;;;;;10.17;4.67;;;;;;;21.87;62.55;99273.44;126101;1104;22755;-60
2021/05/12 09:58:15;;;;;;;11.80;4.90;;;;;;;21.90;61.28;99275.11;126223;1104;22746;-60
2021/05/12 10:00:45;;;;;;;11.65;5.00;;;;;;;21.84;61.79;99281.03;125926;1104;22704;-60
2021/05/12 10:03:15;;;;;;;13.03;5.43;;;;;;;21.86;61.81;99272.68;126036;1097;27100;-60
2021/05/12 10:06:03;;;;;;;11.47;5.03;;;;;;;21.92;61.83;99278.13;126043;1097;26004;-59
2021/05/12 10:08:33;;;;;;;12.85;6.00;;;;;;;21.91;61.95;99270.94;126077;1096;25815;-60
2021/05/12 10:11:04;;;;;;;10.53;5.78;;;;;;;21.86;61.88;99277.60;125965;1096;22826;-60
2021/05/12 10:13:34;;;;;;;10.50;5.85;;;;;;;21.79;61.50;99275.56;125920;1104;22757;-58
2021/05/12 10:16:07;;;;;;;13.48;5.58;;;;;;;21.71;62.22;99276.36;125856;1104;22881;-60
2021/05/12 10:18:37;;;;;;;11.10;6.05;;;;;;;21.71;61.88;99273.52;126178;1104;22768;-59
2021/05/12 10:21:09;;;;;;;16.18;6.53;;;;;;;21.67;61.37;99273.17;125955;1104;22940;-60
2021/05/12 10:23:39;;;;;;;10.13;5.30;;;;;;;21.64;62.02;99274.32;125925;1096;22755;-60
2021/05/12 10:26:09;;;;;;;13.88;6.38;;;;;;;21.66;61.38;99276.60;126026;1096;26245;-61
2021/05/12 10:28:40;;;;;;;13.20;5.68;;;;;;;21.67;62.08;99272.41;125976;1097;22931;-60
2021/05/12 10:31:11;;;;;;;14.40;6.93;;;;;;;21.66;61.39;99271.66;125999;1097;22745;-59
2021/05/12 10:33:51;;;;;;;11.97;6.17;;;;;;;21.65;61.63;99269.40;126143;1104;22757;-59
2021/05/12 10:36:22;;;;;;;13.80;7.20;;;;;;;21.65;61.72;99267.32;126438;1101;22758;-59
2021/05/12 10:38:55;;;;;;;11.93;6.23;;;;;;;21.65;61.77;99258.80;126126;1104;22752;-61
2021/05/12 10:41:46;;;;;;;15.28;7.05;;;;;;;21.61;61.04;99275.50;126105;1096;27419;-61
2021/05/12 10:44:36;;;;;;;12.70;6.93;;;;;;;21.58;61.33;99262.44;126152;1104;22766;-61
2021/05/12 10:47:10;;;;;;;11.83;6.53;;;;;;;21.64;61.31;99260.12;126010;1104;22773;-61
2021/05/12 10:49:39;;;;;;;13.43;6.53;;;;;;;21.68;61.18;99268.25;126057;1104;22868;-59
2021/05/12 10:52:10;;;;;;;15.43;7.23;;;;;;;21.67;61.45;99261.81;126070;1104;23415;-60
2021/05/12 10:54:41;;;;;;;13.73;5.70;;;;;;;21.70;61.14;99260.64;126103;1104;22732;-61
2021/05/12 10:57:11;;;;;;;14.60;6.08;;;;;;;21.76;61.05;99260.42;126217;1101;22759;-60
2021/05/12 10:59:53;;;;;;;14.53;6.63;;;;;;;21.84;60.84;99258.30;126056;1101;22771;-62
2021/05/12 11:03:02;;;;;;;13.93;6.50;;;;;;;21.88;60.79;99264.33;126144;1104;22750;-60
2021/05/12 11:05:59;;;;;;;13.93;7.67;;;;;;;21.90;60.64;99252.38;126014;1097;22740;-59
2021/05/12 11:08:34;;;;;;;14.93;6.48;;;;;;;21.96;60.80;99247.20;125917;1104;24380;-60
2021/05/12 11:11:06;;;;;;;13.03;6.75;;;;;;;21.98;60.53;99247.38;125934;1097;22717;-61
2021/05/12 11:13:36;;;;;;;13.08;6.50;;;;;;;22.02;60.67;99247.72;126017;1096;26246;-60
2021/05/12 11:16:07;;;;;;;12.78;6.00;;;;;;;22.10;60.52;99242.73;126220;1097;22744;-61
2021/05/12 11:18:54;;;;;;;13.60;6.40;;;;;;;22.21;60.29;99245.08;126157;1097;24390;-60
2021/05/12 11:21:36;;;;;;;13.43;6.93;;;;;;;22.26;60.52;99235.56;126692;1104;22799;-61
2021/05/12 11:24:20;;;;;;;13.18;6.33;;;;;;;22.30;60.50;99238.73;126114;1104;22878;-60
2021/05/12 11:27:17;;;;;;;9.63;4.88;;;;;;;22.41;60.67;99233.29;126157;1097;27131;-60
2021/05/12 11:32:38;;;;;;;12.98;6.53;;;;;;;22.57;59.42;99221.75;126068;1104;22935;-60
2021/05/12 11:35:11;;;;;;;13.37;6.20;;;;;;;22.63;59.77;99227.96;125941;1104;24296;-58
2021/05/12 11:37:44;;;;;;;12.30;5.43;;;;;;;22.72;59.35;99230.88;126056;1096;26902;-60
2021/05/12 11:40:14;;;;;;;14.88;7.18;;;;;;;22.80;59.15;99225.83;126139;1104;22764;-58
2021/05/12 11:42:45;;;;;;;14.20;6.15;;;;;;;22.73;59.06;99223.85;126040;1104;25558;-60